Terminal Aerodrome Forecast
Issued by NWS

Home | Current Version | Previous Version | Text Only | Print | Product List | Glossary On
Versions: 1 2 3 4 5 6 7 8 9 10 11 12 13 14 15 16 17 18 19 20 21 22 23 24
530
FTUS46 KOTX 272320
TAFSFF
TAF
KSFF 272320Z 2800/2824 22013G24KT P6SM VCSH SCT050 BKN090 BKN100
     FM280300 22006KT P6SM SCT070 BKN090 BKN120
     FM280700 VRB04KT P6SM FEW070 SCT150
     FM281300 21006KT P6SM SCT050 BKN250
     FM281900 21009G15KT P6SM SCT060 BKN100=

USA.gov is the U.S. government's official web portal to all federal, state and local government web resources and services.